Time;durP1;ratioP1;P1;durP2;ratioP2;P2;SDS_P1;SDS_P2;PMS_P1;PMS_P2;Temp;Humidity;BMP_temperature;BMP_pressure;BME280_temperature;BME280_humidity;BME280_pressure;Samples;Min_cycle;Max_cycle;Signal;HPM_P1;HPM_P2
2022/07/23 00:00:59;;;;;;;6.57;4.07;;;26.40;93.60;;;;;;5054740;28;20210;-60
2022/07/23 00:03:26;;;;;;;6.72;4.30;;;26.40;93.50;;;;;;5054325;28;20283;-61
2022/07/23 00:05:53;;;;;;;5.53;3.78;;;26.40;93.00;;;;;;5054323;28;20225;-60
2022/07/23 00:08:20;;;;;;;5.45;3.67;;;26.40;92.70;;;;;;5054241;28;20209;-61
2022/07/23 00:10:46;;;;;;;5.13;3.65;;;26.30;92.30;;;;;;5056249;28;20569;-61
2022/07/23 00:13:13;;;;;;;6.78;3.55;;;26.30;92.10;;;;;;5054955;28;20233;-60
2022/07/23 00:15:40;;;;;;;4.22;3.53;;;26.30;92.00;;;;;;5055865;28;20197;-60
2022/07/23 00:18:08;;;;;;;5.88;3.45;;;26.20;91.90;;;;;;5055965;28;20213;-61
2022/07/23 00:20:35;;;;;;;6.45;3.45;;;26.20;91.80;;;;;;5055104;28;20205;-60
2022/07/23 00:23:01;;;;;;;5.97;3.67;;;26.20;91.80;;;;;;5054838;28;20229;-59
2022/07/23 00:25:28;;;;;;;5.55;3.50;;;26.20;92.00;;;;;;5055669;28;20237;-60
2022/07/23 00:27:55;;;;;;;5.80;3.58;;;26.20;92.00;;;;;;5055697;28;20212;-59
2022/07/23 00:30:22;;;;;;;4.53;3.65;;;26.20;92.00;;;;;;5055560;28;20213;-60
2022/07/23 00:32:51;;;;;;;4.38;3.40;;;26.20;91.90;;;;;;5054040;28;20234;-60
2022/07/23 00:35:21;;;;;;;6.18;3.45;;;26.20;91.80;;;;;;5054279;28;20206;-60
2022/07/23 00:37:47;;;;;;;6.25;3.30;;;26.20;91.50;;;;;;5054323;28;20662;-60
2022/07/23 00:40:15;;;;;;;4.25;3.33;;;26.10;91.50;;;;;;5053895;28;20208;-60
2022/07/23 00:42:42;;;;;;;5.60;3.50;;;26.20;91.60;;;;;;5053638;28;20271;-60
2022/07/23 00:45:09;;;;;;;3.67;3.38;;;26.20;91.40;;;;;;5053681;28;20221;-60
2022/07/23 00:47:36;;;;;;;3.42;3.13;;;26.20;91.10;;;;;;5053441;28;20213;-61
2022/07/23 00:50:04;;;;;;;3.72;3.03;;;26.20;90.90;;;;;;5053524;28;20206;-60
2022/07/23 00:52:33;;;;;;;3.25;2.95;;;26.20;90.70;;;;;;5053572;28;20320;-61
2022/07/23 00:55:00;;;;;;;3.47;2.92;;;26.30;90.40;;;;;;5054205;28;20205;-61
2022/07/23 00:57:27;;;;;;;5.00;3.30;;;26.30;91.30;;;;;;5054646;28;20209;-59
2022/07/23 00:59:54;;;;;;;6.68;3.13;;;26.30;93.30;;;;;;5054147;28;20202;-61
2022/07/23 01:02:20;;;;;;;3.53;3.08;;;26.30;94.90;;;;;;5053520;28;20236;-60
2022/07/23 01:04:47;;;;;;;4.25;2.83;;;26.20;95.40;;;;;;5053167;28;20225;-60
2022/07/23 01:07:14;;;;;;;4.72;3.10;;;26.20;95.80;;;;;;5054097;28;20201;-61
2022/07/23 01:09:42;;;;;;;5.90;3.00;;;26.10;96.00;;;;;;5054144;28;20209;-60
2022/07/23 01:12:09;;;;;;;2.90;2.70;;;26.10;96.30;;;;;;5053457;28;20267;-60
2022/07/23 01:14:36;;;;;;;3.08;2.80;;;26.00;96.40;;;;;;5053182;28;20205;-60
2022/07/23 01:17:03;;;;;;;6.55;6.00;;;25.90;95.90;;;;;;5053348;28;20208;-61
2022/07/23 01:19:30;;;;;;;4.40;3.70;;;25.80;95.60;;;;;;5053765;28;20255;-61
2022/07/23 01:21:58;;;;;;;3.00;2.70;;;25.70;95.70;;;;;;5054014;28;20673;-61
2022/07/23 01:24:27;;;;;;;3.75;2.92;;;25.60;95.50;;;;;;5056280;28;20225;-61
2022/07/23 01:26:54;;;;;;;3.17;2.85;;;25.50;95.30;;;;;;5056847;28;20618;-61
2022/07/23 01:29:21;;;;;;;4.13;2.85;;;25.50;95.30;;;;;;5055727;28;20264;-60
2022/07/23 01:31:48;;;;;;;3.45;3.10;;;25.40;95.30;;;;;;5056247;28;20206;-60
2022/07/23 01:34:15;;;;;;;3.75;2.78;;;25.40;95.10;;;;;;5052765;28;20284;-60
2022/07/23 01:36:42;;;;;;;3.25;2.70;;;25.30;95.10;;;;;;5052560;28;20217;-60
2022/07/23 01:39:08;;;;;;;5.00;3.70;;;25.30;95.00;;;;;;5052480;28;20209;-60
2022/07/23 01:41:36;;;;;;;4.15;2.97;;;25.20;95.10;;;;;;5052256;28;20255;-60
2022/07/23 01:44:03;;;;;;;4.75;3.25;;;25.20;95.20;;;;;;5052988;28;20717;-59
2022/07/23 01:46:30;;;;;;;5.70;3.53;;;25.20;94.90;;;;;;5053084;28;20527;-60
2022/07/23 01:48:57;;;;;;;3.75;2.70;;;25.20;94.50;;;;;;5053306;28;20210;-60
2022/07/23 01:51:23;;;;;;;3.47;2.83;;;25.10;94.60;;;;;;5053197;28;20213;-60
2022/07/23 01:53:50;;;;;;;3.20;2.90;;;25.10;94.40;;;;;;5052612;28;20241;-60
2022/07/23 01:56:18;;;;;;;3.22;2.90;;;25.10;94.30;;;;;;5052219;28;20255;-60
2022/07/23 01:58:48;;;;;;;3.88;2.78;;;25.20;94.20;;;;;;5052352;28;20229;-60
2022/07/23 02:01:14;;;;;;;3.67;2.75;;;25.20;94.00;;;;;;5052228;28;20201;-60
2022/07/23 02:03:41;;;;;;;3.20;2.90;;;25.20;93.90;;;;;;5052133;28;20221;-60
2022/07/23 02:06:08;;;;;;;2.97;2.72;;;25.30;93.90;;;;;;5052076;28;20256;-60
2022/07/23 02:08:34;;;;;;;5.95;2.80;;;25.30;93.80;;;;;;5052279;28;20702;-60
2022/07/23 02:11:01;;;;;;;4.00;2.75;;;25.30;93.80;;;;;;5051580;28;20202;-60
2022/07/23 02:13:29;;;;;;;2.75;2.50;;;25.20;94.10;;;;;;5052343;28;20229;-59
2022/07/23 02:15:57;;;;;;;3.78;3.05;;;25.20;94.30;;;;;;5054659;28;20624;-60
2022/07/23 02:18:23;;;;;;;3.50;2.97;;;25.20;94.50;;;;;;5057481;28;20216;-60
2022/07/23 02:20:50;;;;;;;3.42;2.85;;;25.20;94.50;;;;;;5058955;28;20210;-60
2022/07/23 02:23:17;;;;;;;3.25;2.90;;;25.10;94.40;;;;;;5059332;28;20226;-60
2022/07/23 02:25:43;;;;;;;3.88;2.70;;;25.10;94.30;;;;;;5057345;28;20754;-59
2022/07/23 02:28:10;;;;;;;2.95;2.60;;;25.00;94.50;;;;;;5057286;28;20243;-60
2022/07/23 02:30:37;;;;;;;3.20;2.80;;;24.90;94.50;;;;;;5057544;28;20209;-60
2022/07/23 02:33:05;;;;;;;3.58;2.80;;;24.80;94.50;;;;;;5056710;28;20320;-60
2022/07/23 02:35:32;;;;;;;5.45;4.07;;;24.70;94.60;;;;;;5057083;28;20205;-60
2022/07/23 02:37:59;;;;;;;4.13;3.42;;;24.70;94.80;;;;;;5056674;28;20256;-60
2022/07/23 02:40:25;;;;;;;4.95;3.28;;;24.70;94.90;;;;;;5056511;28;20267;-61
2022/07/23 02:42:52;;;;;;;3.42;2.83;;;24.60;94.90;;;;;;5056545;28;20229;-60
2022/07/23 02:45:19;;;;;;;4.60;3.00;;;24.60;95.00;;;;;;5056244;28;20225;-60
2022/07/23 02:47:45;;;;;;;3.50;3.20;;;24.60;95.10;;;;;;5056353;28;20213;-60
2022/07/23 02:50:13;;;;;;;3.28;2.97;;;24.60;95.30;;;;;;5056580;28;20209;-60
2022/07/23 02:52:40;;;;;;;3.72;3.42;;;24.50;95.40;;;;;;5056297;28;20725;-61
2022/07/23 02:55:08;;;;;;;3.95;3.33;;;24.50;95.40;;;;;;5057580;28;20205;-60
2022/07/23 02:57:34;;;;;;;3.17;2.88;;;24.40;95.50;;;;;;5057393;28;20210;-63
2022/07/23 03:00:01;;;;;;;4.30;3.30;;;24.40;95.70;;;;;;5057356;28;20669;-60
2022/07/23 03:02:28;;;;;;;4.97;3.47;;;24.30;95.80;;;;;;5057434;28;20279;-60
2022/07/23 03:04:55;;;;;;;3.95;3.17;;;24.30;96.10;;;;;;5057719;28;20226;-61
2022/07/23 03:07:23;;;;;;;4.05;3.25;;;24.20;96.30;;;;;;5056920;28;20202;-60
2022/07/23 03:09:49;;;;;;;4.93;3.55;;;24.20;96.50;;;;;;5057044;28;20713;-60
2022/07/23 03:12:16;;;;;;;5.15;3.50;;;24.10;96.80;;;;;;5057061;28;20581;-60
2022/07/23 03:14:43;;;;;;;4.57;3.67;;;24.10;97.00;;;;;;5056794;28;20205;-60
2022/07/23 03:17:10;;;;;;;3.60;3.25;;;24.00;97.30;;;;;;5057102;28;20217;-60
2022/07/23 03:19:38;;;;;;;5.82;3.80;;;24.00;97.50;;;;;;5056897;28;20201;-60
2022/07/23 03:22:05;;;;;;;4.07;3.38;;;24.00;97.80;;;;;;5057570;28;20264;-60
2022/07/23 03:27:14;;;;;;;5.25;3.78;;;23.90;98.10;;;;;;5056166;28;20704;-60
2022/07/23 03:29:41;;;;;;;3.70;3.33;;;23.90;98.30;;;;;;5058296;28;20218;-60
2022/07/23 03:32:08;;;;;;;5.80;3.47;;;23.90;98.50;;;;;;5058054;28;20732;-60
2022/07/23 03:34:34;;;;;;;3.55;3.25;;;24.00;98.70;;;;;;5056619;28;20580;-60
2022/07/23 03:37:01;;;;;;;4.25;3.45;;;24.00;98.80;;;;;;5056003;28;20202;-58
2022/07/23 03:39:28;;;;;;;5.45;3.70;;;24.00;98.90;;;;;;5054738;28;20206;-58
2022/07/23 03:41:56;;;;;;;5.25;3.47;;;24.00;99.10;;;;;;5054521;28;20485;-58
2022/07/23 03:44:23;;;;;;;4.07;3.38;;;24.00;99.30;;;;;;5054283;28;20201;-58
2022/07/23 03:46:50;;;;;;;4.35;3.40;;;23.90;99.30;;;;;;5053947;28;20438;-58
2022/07/23 03:49:16;;;;;;;4.40;3.60;;;23.90;99.30;;;;;;5054345;28;20209;-58
2022/07/23 03:51:43;;;;;;;4.32;3.22;;;24.00;99.30;;;;;;5053877;28;20214;-58
2022/07/23 03:54:10;;;;;;;3.85;3.33;;;24.00;99.40;;;;;;5093814;22;20224;-57
2022/07/23 03:56:37;;;;;;;4.47;3.17;;;24.10;99.30;;;;;;5073577;28;20640;-57
2022/07/23 03:59:05;;;;;;;5.18;3.38;;;24.00;99.40;;;;;;5073525;28;20259;-57
2022/07/23 04:01:31;;;;;;;4.05;3.65;;;24.00;99.50;;;;;;5073282;28;20703;-58
2022/07/23 04:03:58;;;;;;;4.22;3.60;;;24.00;99.70;;;;;;5073860;28;20225;-57
2022/07/23 04:06:25;;;;;;;5.57;3.90;;;24.00;99.90;;;;;;5073599;28;20655;-58
2022/07/23 04:08:52;;;;;;;4.00;3.50;;;24.10;99.90;;;;;;5073857;28;20255;-56
2022/07/23 04:11:19;;;;;;;5.03;3.63;;;24.10;99.90;;;;;;5073423;28;20201;-57
2022/07/23 04:13:46;;;;;;;8.30;3.72;;;24.10;99.80;;;;;;5073282;28;20232;-57
2022/07/23 04:16:14;;;;;;;3.97;3.10;;;24.10;99.90;;;;;;5073594;28;20551;-58
2022/07/23 04:18:41;;;;;;;4.45;3.40;;;24.10;99.90;;;;;;5073435;28;20620;-58
2022/07/23 04:21:07;;;;;;;3.50;3.20;;;24.10;99.90;;;;;;5073056;28;20208;-57
2022/07/23 04:23:34;;;;;;;4.93;3.50;;;24.20;99.90;;;;;;5073581;28;20229;-59
2022/07/23 04:26:01;;;;;;;5.53;3.28;;;24.30;99.90;;;;;;5072937;28;20692;-58
2022/07/23 04:28:28;;;;;;;3.90;3.22;;;24.30;99.90;;;;;;5072843;28;20213;-58
2022/07/23 04:30:57;;;;;;;4.72;3.30;;;24.40;99.90;;;;;;5073082;28;20205;-58
2022/07/23 04:33:25;;;;;;;4.47;4.00;;;24.50;99.80;;;;;;5072814;28;20221;-57
2022/07/23 04:35:52;;;;;;;3.80;3.50;;;24.50;99.80;;;;;;5072922;28;20228;-58
2022/07/23 04:38:18;;;;;;;4.30;3.40;;;24.60;99.70;;;;;;5072593;28;20225;-59
2022/07/23 04:40:45;;;;;;;3.80;3.35;;;24.70;99.80;;;;;;5072523;28;20209;-58
2022/07/23 04:43:12;;;;;;;3.65;3.35;;;24.70;99.80;;;;;;5072237;28;20643;-59
2022/07/23 04:45:38;;;;;;;5.78;3.75;;;24.80;99.60;;;;;;5072897;28;20220;-58
2022/07/23 04:48:05;;;;;;;3.83;3.40;;;24.90;99.50;;;;;;5072955;28;20676;-58
2022/07/23 04:50:34;;;;;;;4.70;3.30;;;24.90;99.60;;;;;;5072854;28;20205;-57
2022/07/23 04:53:00;;;;;;;4.97;3.70;;;24.90;99.60;;;;;;5072372;28;20744;-58
2022/07/23 04:55:27;;;;;;;5.03;3.78;;;24.80;99.60;;;;;;5072528;28;20278;-58
2022/07/23 04:57:54;;;;;;;4.20;3.67;;;24.70;99.80;;;;;;5072246;28;20205;-57
2022/07/23 05:00:21;;;;;;;5.28;3.55;;;24.70;99.80;;;;;;5072497;28;20201;-59
2022/07/23 05:02:48;;;;;;;6.95;3.92;;;24.80;99.60;;;;;;5072208;28;20221;-58
2022/07/23 05:05:14;;;;;;;4.00;3.60;;;25.00;99.30;;;;;;5072362;28;20216;-58
2022/07/23 05:07:42;;;;;;;4.10;3.70;;;25.20;98.90;;;;;;5072395;28;20209;-58
2022/07/23 05:10:09;;;;;;;3.63;3.33;;;25.50;98.40;;;;;;5072217;28;20208;-59
2022/07/23 05:12:36;;;;;;;6.43;3.80;;;25.70;98.00;;;;;;5072215;28;20224;-58
2022/07/23 05:15:03;;;;;;;4.00;3.60;;;25.90;97.50;;;;;;5072470;28;20209;-58
2022/07/23 05:17:30;;;;;;;4.75;3.42;;;26.10;97.20;;;;;;5072483;28;20201;-57
2022/07/23 05:19:56;;;;;;;10.07;4.03;;;26.20;96.90;;;;;;5072257;28;20208;-57
2022/07/23 05:22:23;;;;;;;4.72;3.70;;;26.40;96.60;;;;;;5072075;28;20298;-58
2022/07/23 05:24:51;;;;;;;5.82;3.92;;;26.40;96.40;;;;;;5071859;28;20205;-58
2022/07/23 05:27:18;;;;;;;6.20;3.60;;;26.50;96.30;;;;;;5071808;28;20733;-59
2022/07/23 05:29:44;;;;;;;5.03;3.70;;;26.60;96.10;;;;;;5072154;28;20212;-58
2022/07/23 05:32:11;;;;;;;3.58;3.28;;;26.90;95.80;;;;;;5071953;28;20258;-58
2022/07/23 05:34:38;;;;;;;5.15;3.58;;;27.20;94.60;;;;;;5072073;28;20204;-59
2022/07/23 05:37:04;;;;;;;4.25;3.47;;;27.60;94.00;;;;;;5072147;28;20208;-58
2022/07/23 05:39:31;;;;;;;3.53;3.22;;;28.50;92.80;;;;;;5072235;28;20742;-57
2022/07/23 05:41:59;;;;;;;6.95;6.07;;;29.50;90.20;;;;;;5071937;28;20241;-59
2022/07/23 05:44:27;;;;;;;3.85;3.28;;;30.10;87.70;;;;;;5071833;28;20228;-59
2022/07/23 05:46:53;;;;;;;4.78;3.38;;;30.30;85.70;;;;;;5071855;28;20232;-58
2022/07/23 05:49:20;;;;;;;4.68;3.47;;;30.20;85.60;;;;;;5071988;28;20261;-60
2022/07/23 05:51:47;;;;;;;3.60;3.30;;;29.90;85.90;;;;;;5078113;28;20208;-57
2022/07/23 05:54:14;;;;;;;5.43;3.55;;;29.60;86.80;;;;;;5078462;28;20286;-57
2022/07/23 05:56:40;;;;;;;5.38;4.03;;;29.20;87.90;;;;;;5078526;28;20205;-58
2022/07/23 05:59:09;;;;;;;3.80;3.50;;;29.00;88.70;;;;;;5078453;28;20204;-57
2022/07/23 06:01:35;;;;;;;5.45;3.45;;;28.80;88.90;;;;;;5078279;28;20236;-57
2022/07/23 06:04:02;;;;;;;5.60;3.50;;;28.70;90.00;;;;;;5078288;28;20220;-57
2022/07/23 06:06:29;;;;;;;5.68;3.40;;;28.80;90.00;;;;;;5078142;28;20229;-58
2022/07/23 06:08:56;;;;;;;4.78;4.28;;;28.80;90.00;;;;;;5078447;28;20216;-58
2022/07/23 06:11:22;;;;;;;4.07;3.28;;;28.90;89.60;;;;;;5078086;28;20506;-57
2022/07/23 06:13:49;;;;;;;4.15;3.67;;;28.90;90.00;;;;;;5078166;28;20240;-57
2022/07/23 06:16:17;;;;;;;4.25;3.33;;;28.70;90.80;;;;;;5077957;28;20726;-57
2022/07/23 06:18:44;;;;;;;4.50;3.30;;;28.40;91.90;;;;;;5078561;28;20283;-57
2022/07/23 06:21:10;;;;;;;6.75;3.75;;;28.10;93.10;;;;;;5077728;28;20687;-59
2022/07/23 06:23:37;;;;;;;3.85;3.55;;;27.80;93.60;;;;;;5078110;28;20229;-58
2022/07/23 06:26:04;;;;;;;4.53;3.40;;;27.60;93.80;;;;;;5077944;28;20225;-57
2022/07/23 06:28:30;;;;;;;5.20;3.55;;;27.40;94.00;;;;;;5077885;28;20212;-57
2022/07/23 06:30:57;;;;;;;4.75;3.65;;;27.10;94.70;;;;;;5077879;28;20577;-59
2022/07/23 06:33:25;;;;;;;4.43;3.97;;;26.90;95.10;;;;;;5077595;28;20247;-57
2022/07/23 06:35:51;;;;;;;5.40;3.67;;;27.00;95.40;;;;;;5077967;28;20201;-58
2022/07/23 06:38:18;;;;;;;6.15;3.92;;;27.70;94.30;;;;;;5078043;28;20201;-57
2022/07/23 06:40:45;;;;;;;4.80;3.47;;;29.30;91.90;;;;;;5077962;28;20209;-57
2022/07/23 06:43:12;;;;;;;5.32;3.83;;;30.90;87.80;;;;;;5077696;28;20323;-57
2022/07/23 06:45:38;;;;;;;5.80;3.53;;;32.20;80.90;;;;;;5077913;28;20201;-58
2022/07/23 06:48:05;;;;;;;3.55;3.25;;;33.20;75.60;;;;;;5077711;28;20542;-57
2022/07/23 06:50:34;;;;;;;6.65;3.78;;;33.50;75.20;;;;;;5078104;28;20211;-58
2022/07/23 06:53:01;;;;;;;5.97;3.72;;;33.40;73.10;;;;;;5077579;28;20294;-58
2022/07/23 06:55:27;;;;;;;6.45;3.80;;;32.70;73.00;;;;;;5077865;28;20213;-57
2022/07/23 06:57:54;;;;;;;5.80;4.10;;;31.70;76.20;;;;;;5077759;28;20212;-56
2022/07/23 07:00:21;;;;;;;5.47;3.92;;;31.00;78.80;;;;;;5077975;28;20669;-59
2022/07/23 07:02:48;;;;;;;7.45;4.43;;;30.40;80.80;;;;;;5077356;28;20232;-59
2022/07/23 07:05:14;;;;;;;7.40;4.88;;;30.00;82.80;;;;;;5079497;28;20208;-59
2022/07/23 07:07:42;;;;;;;6.18;5.03;;;29.60;83.90;;;;;;5078743;28;20719;-58
2022/07/23 07:10:10;;;;;;;4.63;4.22;;;29.40;85.10;;;;;;5078462;28;20262;-57
2022/07/23 07:12:37;;;;;;;6.00;4.53;;;29.20;86.90;;;;;;5074714;28;20282;-57
2022/07/23 07:15:04;;;;;;;5.28;4.78;;;28.80;88.90;;;;;;5074339;28;20205;-56
2022/07/23 07:17:30;;;;;;;6.97;5.07;;;28.40;90.40;;;;;;5074405;28;20201;-58
2022/07/23 07:19:57;;;;;;;5.22;4.70;;;28.00;91.20;;;;;;5074204;28;20236;-57
2022/07/23 07:22:24;;;;;;;5.85;5.30;;;27.70;92.00;;;;;;5073993;28;20225;-57
2022/07/23 07:24:52;;;;;;;9.10;5.60;;;27.40;92.60;;;;;;5074211;28;20234;-58
2022/07/23 07:27:18;;;;;;;10.07;5.28;;;27.00;93.30;;;;;;5074024;28;20580;-59
2022/07/23 07:29:45;;;;;;;6.78;5.13;;;26.60;94.10;;;;;;5074029;28;20201;-57
2022/07/23 07:32:12;;;;;;;10.18;5.80;;;26.40;94.90;;;;;;5073947;28;20212;-57
2022/07/23 07:34:38;;;;;;;13.15;5.70;;;26.20;95.60;;;;;;5074129;28;20205;-59
2022/07/23 07:37:05;;;;;;;6.15;5.28;;;26.40;96.00;;;;;;5073889;28;20207;-58
2022/07/23 07:39:32;;;;;;;9.15;5.60;;;26.90;95.40;;;;;;5073994;28;20295;-58
2022/07/23 07:42:00;;;;;;;10.82;5.25;;;27.00;95.00;;;;;;5073655;28;20691;-57
2022/07/23 07:44:26;;;;;;;10.50;6.00;;;26.80;95.30;;;;;;5069648;28;20882;-58
2022/07/23 07:46:53;;;;;;;17.10;5.43;;;26.50;96.00;;;;;;5072472;28;20224;-60
2022/07/23 07:49:21;;;;;;;11.23;4.75;;;26.20;96.80;;;;;;5072781;28;20296;-58
2022/07/23 07:51:47;;;;;;;10.40;5.65;;;26.10;97.60;;;;;;5072816;28;20215;-60
2022/07/23 07:54:14;;;;;;;9.18;5.93;;;26.00;97.90;;;;;;5072551;28;20233;-59
2022/07/23 07:56:41;;;;;;;6.90;5.65;;;26.00;98.30;;;;;;5072192;28;20209;-59
2022/07/23 07:59:11;;;;;;;7.13;5.57;;;25.90;99.00;;;;;;5072432;28;20209;-60
2022/07/23 08:01:37;;;;;;;9.02;5.75;;;25.70;99.60;;;;;;5072622;28;20216;-61
2022/07/23 08:04:04;;;;;;;6.30;5.20;;;25.70;99.90;;;;;;5072376;28;20225;-59
2022/07/23 08:06:31;;;;;;;6.43;4.95;;;25.90;99.70;;;;;;5072382;28;20228;-59
2022/07/23 08:08:58;;;;;;;6.65;4.40;;;26.60;98.70;;;;;;5072230;28;20213;-60
2022/07/23 08:11:24;;;;;;;8.02;5.20;;;28.20;95.50;;;;;;5072365;28;20205;-60
2022/07/23 08:13:51;;;;;;;4.75;4.07;;;28.80;94.40;;;;;;5072325;28;20229;-59
2022/07/23 08:16:19;;;;;;;6.78;4.30;;;29.20;94.00;;;;;;5072429;28;20730;-60
2022/07/23 08:18:46;;;;;;;7.05;4.65;;;29.40;93.00;;;;;;5072540;28;20258;-60
2022/07/23 08:21:13;;;;;;;4.72;4.30;;;29.30;92.90;;;;;;5072164;28;20558;-59
2022/07/23 08:23:39;;;;;;;4.65;4.15;;;29.10;92.90;;;;;;5072027;28;20228;-59
2022/07/23 08:26:06;;;;;;;4.93;4.43;;;28.90;93.10;;;;;;5071782;28;20250;-60
2022/07/23 08:28:33;;;;;;;7.22;4.65;;;28.50;93.40;;;;;;5072166;28;20715;-59
2022/07/23 08:31:00;;;;;;;6.25;4.63;;;28.20;94.00;;;;;;5072143;28;20291;-61
2022/07/23 08:33:28;;;;;;;4.95;4.45;;;27.90;94.70;;;;;;5071251;28;20220;-60
2022/07/23 08:35:56;;;;;;;5.05;4.40;;;27.70;95.00;;;;;;5071743;28;20205;-61
2022/07/23 08:38:24;;;;;;;4.50;4.05;;;27.60;95.20;;;;;;5071601;28;20262;-59
2022/07/23 08:40:53;;;;;;;5.35;4.35;;;28.40;94.30;;;;;;5071577;28;20216;-59
2022/07/23 08:43:23;;;;;;;5.00;4.40;;;29.30;92.80;;;;;;5071526;28;20240;-60
2022/07/23 08:45:51;;;;;;;5.20;4.20;;;29.50;91.40;;;;;;5071094;28;20204;-57
2022/07/23 08:48:20;;;;;;;8.13;4.20;;;29.40;91.10;;;;;;5071265;28;20228;-59
2022/07/23 08:50:50;;;;;;;7.03;4.38;;;29.20;91.30;;;;;;5071518;28;20219;-59
2022/07/23 08:53:18;;;;;;;5.53;4.50;;;28.80;91.90;;;;;;5071623;28;20240;-57
2022/07/23 08:55:46;;;;;;;6.43;4.38;;;28.60;92.70;;;;;;5071160;28;20277;-58
2022/07/23 08:58:13;;;;;;;5.93;4.32;;;28.40;92.10;;;;;;5071336;28;20228;-59
2022/07/23 09:00:40;;;;;;;5.68;4.63;;;28.50;92.30;;;;;;5071716;28;20594;-58
2022/07/23 09:03:07;;;;;;;5.20;3.85;;;28.70;92.20;;;;;;5071187;28;20647;-59
2022/07/23 09:05:33;;;;;;;5.22;4.10;;;29.00;91.20;;;;;;5071046;28;20492;-59
2022/07/23 09:08:13;;;;;;;5.03;3.90;;;29.30;90.50;;;;;;5071311;28;20221;-58
2022/07/23 09:10:51;;;;;;;4.30;3.90;;;29.60;90.10;;;;;;5071299;28;20204;-59
2022/07/23 09:13:26;;;;;;;5.22;4.72;;;29.80;89.30;;;;;;5071330;28;20267;-59
2022/07/23 09:15:54;;;;;;;6.75;3.88;;;30.00;87.70;;;;;;5070940;28;20208;-58
2022/07/23 09:18:28;;;;;;;6.95;3.70;;;30.20;86.70;;;;;;5070961;28;20703;-58
2022/07/23 09:21:10;;;;;;;4.10;3.70;;;30.40;85.20;;;;;;5071024;28;20200;-57
2022/07/23 09:23:43;;;;;;;4.38;3.97;;;30.50;83.50;;;;;;5071305;28;20320;-58
2022/07/23 09:26:29;;;;;;;6.15;3.67;;;30.70;82.20;;;;;;5070715;28;20256;-60
2022/07/23 09:28:59;;;;;;;4.68;3.80;;;31.00;82.10;;;;;;5071318;28;20312;-57
2022/07/23 09:31:32;;;;;;;4.35;3.95;;;31.40;80.90;;;;;;5071430;28;20205;-59
2022/07/23 09:34:08;;;;;;;4.30;3.90;;;31.80;78.90;;;;;;5070833;28;20311;-58
2022/07/23 09:36:34;;;;;;;6.25;3.60;;;31.90;77.70;;;;;;5070837;28;20236;-57
2022/07/23 09:39:03;;;;;;;6.05;3.80;;;32.10;75.90;;;;;;5070616;28;20699;-57
2022/07/23 09:41:40;;;;;;;4.80;3.80;;;32.30;75.20;;;;;;5070709;28;20209;-58
2022/07/23 09:44:12;;;;;;;4.55;3.60;;;32.70;73.30;;;;;;5070856;28;20228;-57
2022/07/23 09:46:43;;;;;;;4.50;3.47;;;33.00;70.50;;;;;;5070407;28;20258;-58
2022/07/23 09:49:20;;;;;;;3.83;3.50;;;33.20;69.70;;;;;;5070808;28;20590;-57
2022/07/23 09:51:53;;;;;;;4.78;3.35;;;33.50;68.80;;;;;;5070882;28;20205;-58
2022/07/23 09:54:31;;;;;;;4.40;3.63;;;33.70;67.30;;;;;;5094475;22;20235;-59
2022/07/23 09:56:59;;;;;;;3.78;3.40;;;33.60;67.00;;;;;;5071373;28;20550;-57
2022/07/23 09:59:28;;;;;;;3.78;3.40;;;33.40;66.00;;;;;;5071460;28;20224;-57
2022/07/23 10:01:56;;;;;;;5.20;3.42;;;33.20;66.60;;;;;;5071764;28;20208;-58
2022/07/23 10:04:24;;;;;;;3.90;3.60;;;32.90;67.50;;;;;;5071923;28;20231;-59
2022/07/23 10:06:54;;;;;;;3.90;3.60;;;32.60;68.50;;;;;;5071658;28;20703;-59
2022/07/23 10:09:25;;;;;;;5.72;3.80;;;32.40;69.60;;;;;;5071855;28;20201;-58
2022/07/23 10:11:56;;;;;;;4.00;3.65;;;32.30;70.50;;;;;;5071294;28;20236;-59
2022/07/23 10:14:21;;;;;;;4.35;3.25;;;32.10;71.30;;;;;;5071537;28;20231;-59
2022/07/23 10:16:49;;;;;;;5.05;3.72;;;31.80;71.20;;;;;;5071622;28;20283;-59
2022/07/23 10:19:16;;;;;;;3.50;3.20;;;31.80;71.10;;;;;;5071793;28;20204;-59
2022/07/23 10:21:47;;;;;;;4.47;3.70;;;31.70;71.10;;;;;;5071246;28;20728;-59
2022/07/23 10:24:21;;;;;;;3.90;3.08;;;31.60;70.90;;;;;;5071496;28;20229;-58
2022/07/23 10:26:57;;;;;;;4.75;3.70;;;31.30;71.30;;;;;;5071428;28;20208;-59
2022/07/23 10:29:39;;;;;;;4.05;3.25;;;30.80;72.60;;;;;;5071510;28;20209;-58
2022/07/23 10:32:17;;;;;;;6.13;4.25;;;30.60;72.00;;;;;;5071121;28;20212;-58
2022/07/23 10:34:51;;;;;;;6.43;4.10;;;30.60;72.50;;;;;;5071656;28;20289;-58
2022/07/23 10:37:24;;;;;;;7.53;3.70;;;30.70;71.80;;;;;;5073602;28;20587;-59
2022/07/23 10:40:10;;;;;;;5.97;3.80;;;30.80;71.40;;;;;;5075368;28;20661;-58
2022/07/23 10:42:39;;;;;;;5.00;3.85;;;30.90;72.10;;;;;;5075637;28;20201;-59
2022/07/23 10:45:25;;;;;;;4.80;3.33;;;31.00;73.00;;;;;;5075431;28;20209;-58
2022/07/23 10:47:52;;;;;;;4.75;3.53;;;31.10;72.70;;;;;;5074588;28;20315;-59
2022/07/23 10:50:21;;;;;;;4.50;3.40;;;31.20;73.60;;;;;;5074689;28;20216;-58
2022/07/23 10:53:13;;;;;;;6.50;3.80;;;31.20;69.30;;;;;;5074680;28;20233;-59
2022/07/23 10:55:48;;;;;;;4.60;3.25;;;31.10;71.30;;;;;;5060923;28;20237;-59
2022/07/23 10:58:22;;;;;;;3.80;3.50;;;30.80;71.80;;;;;;5054343;28;20197;-59
2022/07/23 11:00:49;;;;;;;4.60;4.07;;;30.80;72.10;;;;;;5054550;28;20213;-61
2022/07/23 11:03:37;;;;;;;4.15;3.72;;;30.90;72.70;;;;;;5056341;28;20225;-57
2022/07/23 11:06:05;;;;;;;5.18;3.53;;;31.10;71.70;;;;;;5055889;28;20202;-57
2022/07/23 11:08:32;;;;;;;3.95;3.65;;;31.20;71.00;;;;;;5055579;28;20232;-59
2022/07/23 11:11:11;;;;;;;3.75;3.40;;;31.50;69.10;;;;;;5055775;28;20206;-58
2022/07/23 11:13:46;;;;;;;5.38;3.75;;;31.80;68.00;;;;;;5055515;28;20233;-56
2022/07/23 11:16:19;;;;;;;5.10;3.38;;;31.90;67.60;;;;;;5055179;28;20205;-57
2022/07/23 11:19:00;;;;;;;5.80;4.60;;;31.90;66.70;;;;;;5055226;28;20212;-58
2022/07/23 11:21:52;;;;;;;6.13;3.90;;;32.10;68.00;;;;;;5055502;28;20209;-58
2022/07/23 11:24:21;;;;;;;3.80;3.50;;;32.30;70.10;;;;;;5054905;28;20279;-57
2022/07/23 11:26:57;;;;;;;6.95;4.90;;;32.30;69.80;;;;;;5055114;28;20587;-58
2022/07/23 11:29:45;;;;;;;6.50;5.50;;;32.20;70.40;;;;;;5055060;28;20217;-58
2022/07/23 11:32:38;;;;;;;4.07;3.70;;;32.30;69.60;;;;;;5054667;28;20225;-58
2022/07/23 11:35:23;;;;;;;4.60;4.20;;;32.10;66.70;;;;;;5055098;28;20300;-59
2022/07/23 11:37:53;;;;;;;4.00;3.70;;;31.90;66.90;;;;;;5054504;28;20201;-58
2022/07/23 11:40:20;;;;;;;6.88;3.85;;;31.80;66.30;;;;;;5055112;28;20209;-58
2022/07/23 11:42:53;;;;;;;5.00;4.00;;;31.60;67.70;;;;;;5054482;28;20270;-59
2022/07/23 11:45:22;;;;;;;4.82;3.88;;;31.50;67.70;;;;;;5054900;28;20209;-58
2022/07/23 11:47:49;;;;;;;4.35;3.95;;;31.70;67.90;;;;;;5053653;28;20475;-58
2022/07/23 11:50:16;;;;;;;6.15;4.03;;;31.90;67.20;;;;;;5054357;28;20206;-58
2022/07/23 11:52:43;;;;;;;4.68;3.60;;;32.20;66.20;;;;;;5054614;28;20241;-58
2022/07/23 11:55:11;;;;;;;4.20;3.80;;;32.40;65.80;;;;;;5054538;28;20213;-58
2022/07/23 11:57:40;;;;;;;3.70;3.35;;;32.70;67.40;;;;;;5054806;28;20343;-58
2022/07/23 12:00:10;;;;;;;4.43;4.03;;;32.80;64.80;;;;;;5054691;28;20673;-58
2022/07/23 12:02:39;;;;;;;4.57;3.80;;;33.00;65.10;;;;;;5054243;28;20205;-58
2022/07/23 12:05:07;;;;;;;3.65;3.35;;;33.20;65.20;;;;;;5054731;28;20206;-58
2022/07/23 12:07:35;;;;;;;5.13;3.88;;;33.20;65.90;;;;;;5054685;28;20209;-58
2022/07/23 12:10:05;;;;;;;4.07;3.70;;;33.20;66.60;;;;;;5054618;28;20220;-58
2022/07/23 12:12:41;;;;;;;5.70;3.80;;;33.30;67.20;;;;;;5055115;28;20291;-58
2022/07/23 12:15:09;;;;;;;5.53;4.05;;;33.60;66.20;;;;;;5055487;28;20209;-58
2022/07/23 12:17:40;;;;;;;4.30;3.90;;;34.00;65.90;;;;;;5055314;28;20206;-59
2022/07/23 12:20:09;;;;;;;3.80;3.50;;;34.20;64.80;;;;;;5055474;28;20216;-58
2022/07/23 12:22:38;;;;;;;4.13;3.78;;;34.30;64.70;;;;;;5054951;28;20212;-58
2022/07/23 12:25:08;;;;;;;4.50;4.10;;;34.40;64.50;;;;;;5054297;28;20589;-58
2022/07/23 12:27:35;;;;;;;3.88;3.47;;;34.40;63.80;;;;;;5054843;28;20644;-60
2022/07/23 12:30:20;;;;;;;3.92;3.63;;;34.40;63.80;;;;;;5054088;28;20300;-58
2022/07/23 12:32:50;;;;;;;3.83;3.45;;;34.20;62.30;;;;;;5053819;28;20225;-58
2022/07/23 12:35:18;;;;;;;3.75;3.45;;;34.20;60.50;;;;;;5053895;28;20209;-59
2022/07/23 12:37:46;;;;;;;4.53;3.55;;;34.10;61.50;;;;;;5053932;28;20205;-58
2022/07/23 12:40:20;;;;;;;4.10;3.70;;;34.10;61.60;;;;;;5053966;28;20213;-57
2022/07/23 12:42:48;;;;;;;12.57;4.85;;;34.00;63.50;;;;;;5053309;28;20225;-58
2022/07/23 12:45:15;;;;;;;4.80;3.50;;;33.60;65.00;;;;;;5053542;28;20209;-58
2022/07/23 12:48:01;;;;;;;4.13;3.72;;;33.00;66.20;;;;;;5053944;28;20206;-58
2022/07/23 12:50:35;;;;;;;4.45;3.95;;;32.60;67.30;;;;;;5053553;28;20205;-57
2022/07/23 12:53:04;;;;;;;5.10;4.28;;;32.10;68.80;;;;;;5053430;28;20237;-57
2022/07/23 12:55:31;;;;;;;5.57;5.07;;;31.80;69.80;;;;;;5053765;28;20213;-56